KSNY/SNY METAR and TAF weather

Enter ICAO airport designator
Station Type Date Time Source
KSNY METAR 2019/04/18 21:53 UTC NOAA

KSNY 182153Z AUTO 02024G33KT 10SM SCT090 BKN100 13/M02 A3010 RMK AO2 PK WND 36036/2126 SLP185 T01281022


Station Type Date Time Source
KSNY Decoded METAR 2019/04/18 21:53 UTC NOAA

SIDNEY MUNICIPAL AIRPORT, NE, United States (KSNY) 41-06N 102-59W 1307M
Apr 18, 2019 - 05:53 PM EDT / 2019.04.18 2153 UTC
Wind: from the NNE (020 degrees) at 28 MPH (24 KT) gusting to 38 MPH (33 KT):0
Visibility: 10 mile(s):0
Sky conditions: mostly cloudy
Temperature: 55.0 F (12.8 C)
Dew Point: 28.0 F (-2.2 C)
Relative Humidity: 35%
Pressure (altimeter): 30.1 in. Hg (1019 hPa)
ob: KSNY 182153Z AUTO 02024G33KT 10SM SCT090 BKN100 13/M02 A3010 RMK AO2 PK WND 36036/2126 SLP185 T01281022
cycle: 22

Station Type Date Time Source
KSNY TAF 2019/04/18 22:58 UTC NOAA

TAF
AMD KSNY 182154Z 1822/1918 36025G35KT P6SM BKN070
FM190200 30005KT P6SM SCT100

Example: see airport list